sensor_id;sensor_type;location;lat;lon;timestamp;temperature;humidity
1107;DHT22;540;49.448;8.612;2024-01-30T00:02:27;4.60;99.90
1107;DHT22;540;49.448;8.612;2024-01-30T00:04:55;4.40;99.90
1107;DHT22;540;49.448;8.612;2024-01-30T00:07:26;4.40;99.90
1107;DHT22;540;49.448;8.612;2024-01-30T00:09:54;4.30;99.90
1107;DHT22;540;49.448;8.612;2024-01-30T00:12:22;4.30;99.90
1107;DHT22;540;49.448;8.612;2024-01-30T00:14:50;4.40;99.90
1107;DHT22;540;49.448;8.612;2024-01-30T00:17:22;4.70;99.90
1107;DHT22;540;49.448;8.612;2024-01-30T00:19:51;4.50;99.90
1107;DHT22;540;49.448;8.612;2024-01-30T00:22:20;4.40;99.90
1107;DHT22;540;49.448;8.612;2024-01-30T00:24:48;4.40;99.90
1107;DHT22;540;49.448;8.612;2024-01-30T00:27:16;4.70;99.90
1107;DHT22;540;49.448;8.612;2024-01-30T00:29:44;4.40;99.90
1107;DHT22;540;49.448;8.612;2024-01-30T00:32:12;4.40;99.90
1107;DHT22;540;49.448;8.612;2024-01-30T00:34:41;4.60;99.90
1107;DHT22;540;49.448;8.612;2024-01-30T00:37:09;4.30;99.90
1107;DHT22;540;49.448;8.612;2024-01-30T00:39:37;4.50;99.90
1107;DHT22;540;49.448;8.612;2024-01-30T00:42:05;4.00;99.90
1107;DHT22;540;49.448;8.612;2024-01-30T00:44:35;4.50;99.90
1107;DHT22;540;49.448;8.612;2024-01-30T00:47:04;4.50;99.90
1107;DHT22;540;49.448;8.612;2024-01-30T00:49:32;4.30;99.90
1107;DHT22;540;49.448;8.612;2024-01-30T00:52:02;4.60;99.90
1107;DHT22;540;49.448;8.612;2024-01-30T00:54:29;4.60;99.90
1107;DHT22;540;49.448;8.612;2024-01-30T00:56:57;4.50;99.90
1107;DHT22;540;49.448;8.612;2024-01-30T00:59:25;4.40;99.90
1107;DHT22;540;49.448;8.612;2024-01-30T01:01:53;4.30;99.90
1107;DHT22;540;49.448;8.612;2024-01-30T01:04:21;4.50;99.90
1107;DHT22;540;49.448;8.612;2024-01-30T01:06:49;4.50;99.90
1107;DHT22;540;49.448;8.612;2024-01-30T01:09:18;4.30;99.90
1107;DHT22;540;49.448;8.612;2024-01-30T01:11:46;4.40;99.90
1107;DHT22;540;49.448;8.612;2024-01-30T01:14:14;4.30;99.90
1107;DHT22;540;49.448;8.612;2024-01-30T01:16:42;4.30;99.90
1107;DHT22;540;49.448;8.612;2024-01-30T01:19:10;3.70;99.90
1107;DHT22;540;49.448;8.612;2024-01-30T01:21:38;4.10;99.90
1107;DHT22;540;49.448;8.612;2024-01-30T01:24:06;4.20;99.90
1107;DHT22;540;49.448;8.612;2024-01-30T01:26:35;3.90;99.90
1107;DHT22;540;49.448;8.612;2024-01-30T01:29:03;4.10;99.90
1107;DHT22;540;49.448;8.612;2024-01-30T01:31:36;4.10;99.90
1107;DHT22;540;49.448;8.612;2024-01-30T01:34:09;4.30;99.90
1107;DHT22;540;49.448;8.612;2024-01-30T01:36:38;4.10;99.90
1107;DHT22;540;49.448;8.612;2024-01-30T01:39:06;4.10;99.90
1107;DHT22;540;49.448;8.612;2024-01-30T01:41:36;4.30;99.90
1107;DHT22;540;49.448;8.612;2024-01-30T01:44:04;4.00;99.90
1107;DHT22;540;49.448;8.612;2024-01-30T01:46:33;4.30;99.90
1107;DHT22;540;49.448;8.612;2024-01-30T01:49:03;4.20;99.90
1107;DHT22;540;49.448;8.612;2024-01-30T01:51:33;4.30;99.90
1107;DHT22;540;49.448;8.612;2024-01-30T01:54:03;4.20;99.90
1107;DHT22;540;49.448;8.612;2024-01-30T01:56:32;4.50;99.90
1107;DHT22;540;49.448;8.612;2024-01-30T01:59:05;4.20;99.90
1107;DHT22;540;49.448;8.612;2024-01-30T02:01:33;4.20;99.90
1107;DHT22;540;49.448;8.612;2024-01-30T02:04:02;4.60;99.90
1107;DHT22;540;49.448;8.612;2024-01-30T02:06:30;4.30;99.90
1107;DHT22;540;49.448;8.612;2024-01-30T02:08:58;4.40;99.90
1107;DHT22;540;49.448;8.612;2024-01-30T02:11:26;4.30;99.90
1107;DHT22;540;49.448;8.612;2024-01-30T02:13:55;4.40;99.90
1107;DHT22;540;49.448;8.612;2024-01-30T02:16:24;4.40;99.90
1107;DHT22;540;49.448;8.612;2024-01-30T02:18:52;4.40;99.90
1107;DHT22;540;49.448;8.612;2024-01-30T02:21:21;4.50;99.90
1107;DHT22;540;49.448;8.612;2024-01-30T02:23:49;4.70;99.90
1107;DHT22;540;49.448;8.612;2024-01-30T02:26:18;4.60;99.90
1107;DHT22;540;49.448;8.612;2024-01-30T02:28:45;4.90;99.90
1107;DHT22;540;49.448;8.612;2024-01-30T02:31:13;4.70;99.90
1107;DHT22;540;49.448;8.612;2024-01-30T02:33:41;4.80;99.90
1107;DHT22;540;49.448;8.612;2024-01-30T02:36:09;4.60;99.90
1107;DHT22;540;49.448;8.612;2024-01-30T02:38:39;4.70;99.90
1107;DHT22;540;49.448;8.612;2024-01-30T02:41:06;4.60;99.90
1107;DHT22;540;49.448;8.612;2024-01-30T02:43:34;4.60;99.90
1107;DHT22;540;49.448;8.612;2024-01-30T02:46:02;4.40;99.90
1107;DHT22;540;49.448;8.612;2024-01-30T02:48:30;4.40;99.90
1107;DHT22;540;49.448;8.612;2024-01-30T02:50:58;4.30;99.90
1107;DHT22;540;49.448;8.612;2024-01-30T02:53:26;4.10;99.90
1107;DHT22;540;49.448;8.612;2024-01-30T02:55:55;4.20;99.90
1107;DHT22;540;49.448;8.612;2024-01-30T02:58:22;4.10;99.90
1107;DHT22;540;49.448;8.612;2024-01-30T03:00:50;4.20;99.90
1107;DHT22;540;49.448;8.612;2024-01-30T03:03:18;4.50;99.90
1107;DHT22;540;49.448;8.612;2024-01-30T03:05:45;4.10;99.90
1107;DHT22;540;49.448;8.612;2024-01-30T03:08:13;4.10;99.90
1107;DHT22;540;49.448;8.612;2024-01-30T03:10:41;4.30;99.90
1107;DHT22;540;49.448;8.612;2024-01-30T03:13:10;4.20;99.90
1107;DHT22;540;49.448;8.612;2024-01-30T03:15:38;4.00;99.90
1107;DHT22;540;49.448;8.612;2024-01-30T03:18:06;4.10;99.90
1107;DHT22;540;49.448;8.612;2024-01-30T03:20:35;4.30;99.90
1107;DHT22;540;49.448;8.612;2024-01-30T03:23:03;4.20;99.90
1107;DHT22;540;49.448;8.612;2024-01-30T03:25:31;4.10;99.90
1107;DHT22;540;49.448;8.612;2024-01-30T03:27:59;4.20;99.90
1107;DHT22;540;49.448;8.612;2024-01-30T03:30:28;4.00;99.90
1107;DHT22;540;49.448;8.612;2024-01-30T03:32:56;4.10;99.90
1107;DHT22;540;49.448;8.612;2024-01-30T03:35:24;4.10;99.90
1107;DHT22;540;49.448;8.612;2024-01-30T03:37:52;4.10;99.90
1107;DHT22;540;49.448;8.612;2024-01-30T03:40:19;4.10;99.90
1107;DHT22;540;49.448;8.612;2024-01-30T03:42:47;4.20;99.90
1107;DHT22;540;49.448;8.612;2024-01-30T03:45:15;4.30;99.90
1107;DHT22;540;49.448;8.612;2024-01-30T03:47:47;4.30;99.90
1107;DHT22;540;49.448;8.612;2024-01-30T03:50:15;4.30;99.90
1107;DHT22;540;49.448;8.612;2024-01-30T03:52:43;4.40;99.90
1107;DHT22;540;49.448;8.612;2024-01-30T03:55:10;4.30;99.90
1107;DHT22;540;49.448;8.612;2024-01-30T03:57:38;4.40;99.90
1107;DHT22;540;49.448;8.612;2024-01-30T04:00:07;4.30;99.90
1107;DHT22;540;49.448;8.612;2024-01-30T04:02:36;4.30;99.90
1107;DHT22;540;49.448;8.612;2024-01-30T04:05:05;4.30;99.90
1107;DHT22;540;49.448;8.612;2024-01-30T04:07:33;4.40;99.90
1107;DHT22;540;49.448;8.612;2024-01-30T04:10:01;4.40;99.90
1107;DHT22;540;49.448;8.612;2024-01-30T04:12:32;4.30;99.90
1107;DHT22;540;49.448;8.612;2024-01-30T04:15:00;4.50;99.90
1107;DHT22;540;49.448;8.612;2024-01-30T04:17:28;4.40;99.90
1107;DHT22;540;49.448;8.612;2024-01-30T04:19:56;4.30;99.90
1107;DHT22;540;49.448;8.612;2024-01-30T04:22:25;4.50;99.90
1107;DHT22;540;49.448;8.612;2024-01-30T04:24:53;4.60;99.90
1107;DHT22;540;49.448;8.612;2024-01-30T04:27:21;4.50;99.90
1107;DHT22;540;49.448;8.612;2024-01-30T04:29:49;4.60;99.90
1107;DHT22;540;49.448;8.612;2024-01-30T04:32:16;4.60;99.90
1107;DHT22;540;49.448;8.612;2024-01-30T04:34:44;4.40;99.90
1107;DHT22;540;49.448;8.612;2024-01-30T04:37:13;4.40;99.90
1107;DHT22;540;49.448;8.612;2024-01-30T04:39:42;4.70;99.90
1107;DHT22;540;49.448;8.612;2024-01-30T04:42:09;4.70;99.90
1107;DHT22;540;49.448;8.612;2024-01-30T04:44:37;4.70;99.90
1107;DHT22;540;49.448;8.612;2024-01-30T04:47:05;4.70;99.90
1107;DHT22;540;49.448;8.612;2024-01-30T04:49:35;4.90;99.90
1107;DHT22;540;49.448;8.612;2024-01-30T04:52:03;5.00;99.90
1107;DHT22;540;49.448;8.612;2024-01-30T04:54:31;5.20;99.90
1107;DHT22;540;49.448;8.612;2024-01-30T04:57:01;5.60;99.90
1107;DHT22;540;49.448;8.612;2024-01-30T04:59:29;5.30;99.90
1107;DHT22;540;49.448;8.612;2024-01-30T05:01:57;5.40;99.90
1107;DHT22;540;49.448;8.612;2024-01-30T05:04:25;4.70;99.90
1107;DHT22;540;49.448;8.612;2024-01-30T05:06:52;5.10;99.90
1107;DHT22;540;49.448;8.612;2024-01-30T05:09:20;5.10;99.90
1107;DHT22;540;49.448;8.612;2024-01-30T05:11:48;5.10;99.90
1107;DHT22;540;49.448;8.612;2024-01-30T05:14:18;5.40;99.90
1107;DHT22;540;49.448;8.612;2024-01-30T05:16:45;5.30;99.90
1107;DHT22;540;49.448;8.612;2024-01-30T05:19:14;5.30;99.90
1107;DHT22;540;49.448;8.612;2024-01-30T05:21:42;5.50;99.90
1107;DHT22;540;49.448;8.612;2024-01-30T05:24:10;5.70;99.90
1107;DHT22;540;49.448;8.612;2024-01-30T05:26:38;5.40;99.90
1107;DHT22;540;49.448;8.612;2024-01-30T05:29:06;5.50;99.90
1107;DHT22;540;49.448;8.612;2024-01-30T05:31:35;5.80;99.90
1107;DHT22;540;49.448;8.612;2024-01-30T05:34:04;5.70;99.90
1107;DHT22;540;49.448;8.612;2024-01-30T05:36:33;5.40;99.90
1107;DHT22;540;49.448;8.612;2024-01-30T05:39:01;5.70;99.90
1107;DHT22;540;49.448;8.612;2024-01-30T05:41:32;5.40;99.90
1107;DHT22;540;49.448;8.612;2024-01-30T05:44:00;5.50;99.90
1107;DHT22;540;49.448;8.612;2024-01-30T05:46:28;5.70;99.90
1107;DHT22;540;49.448;8.612;2024-01-30T05:48:57;5.40;99.90
1107;DHT22;540;49.448;8.612;2024-01-30T05:51:25;5.60;99.90
1107;DHT22;540;49.448;8.612;2024-01-30T05:53:54;5.70;99.90
1107;DHT22;540;49.448;8.612;2024-01-30T05:56:22;5.90;99.90
1107;DHT22;540;49.448;8.612;2024-01-30T05:58:50;5.80;99.90
1107;DHT22;540;49.448;8.612;2024-01-30T06:01:18;5.90;99.90
1107;DHT22;540;49.448;8.612;2024-01-30T06:03:46;5.90;99.90
1107;DHT22;540;49.448;8.612;2024-01-30T06:06:15;5.80;99.90
1107;DHT22;540;49.448;8.612;2024-01-30T06:08:43;5.70;99.90
1107;DHT22;540;49.448;8.612;2024-01-30T06:11:11;5.80;99.90
1107;DHT22;540;49.448;8.612;2024-01-30T06:13:39;5.50;99.90
1107;DHT22;540;49.448;8.612;2024-01-30T06:16:09;5.80;99.90
1107;DHT22;540;49.448;8.612;2024-01-30T06:18:38;5.70;99.90
1107;DHT22;540;49.448;8.612;2024-01-30T06:21:06;5.70;99.90
1107;DHT22;540;49.448;8.612;2024-01-30T06:23:38;5.70;99.90
1107;DHT22;540;49.448;8.612;2024-01-30T06:26:07;5.70;99.90
1107;DHT22;540;49.448;8.612;2024-01-30T06:28:34;5.90;99.90
1107;DHT22;540;49.448;8.612;2024-01-30T06:31:02;6.10;99.90
1107;DHT22;540;49.448;8.612;2024-01-30T06:33:30;5.80;99.90
1107;DHT22;540;49.448;8.612;2024-01-30T06:35:58;5.90;99.90
1107;DHT22;540;49.448;8.612;2024-01-30T06:38:26;5.80;99.90
1107;DHT22;540;49.448;8.612;2024-01-30T06:40:55;6.10;99.90
1107;DHT22;540;49.448;8.612;2024-01-30T06:43:23;6.10;99.90
1107;DHT22;540;49.448;8.612;2024-01-30T06:45:51;5.90;99.90
1107;DHT22;540;49.448;8.612;2024-01-30T06:48:19;6.20;99.90
1107;DHT22;540;49.448;8.612;2024-01-30T06:50:47;5.90;99.90
1107;DHT22;540;49.448;8.612;2024-01-30T06:53:16;6.20;99.90
1107;DHT22;540;49.448;8.612;2024-01-30T06:55:43;5.80;99.90
1107;DHT22;540;49.448;8.612;2024-01-30T06:58:13;6.20;99.90
1107;DHT22;540;49.448;8.612;2024-01-30T07:00:40;5.70;99.90
1107;DHT22;540;49.448;8.612;2024-01-30T07:03:08;5.90;99.90
1107;DHT22;540;49.448;8.612;2024-01-30T07:05:36;5.60;99.90
1107;DHT22;540;49.448;8.612;2024-01-30T07:08:04;5.80;99.90
1107;DHT22;540;49.448;8.612;2024-01-30T07:10:32;6.10;99.90
1107;DHT22;540;49.448;8.612;2024-01-30T07:13:00;5.90;99.90
1107;DHT22;540;49.448;8.612;2024-01-30T07:15:30;5.10;99.90
1107;DHT22;540;49.448;8.612;2024-01-30T07:17:58;5.90;99.90
1107;DHT22;540;49.448;8.612;2024-01-30T07:20:25;5.90;99.90
1107;DHT22;540;49.448;8.612;2024-01-30T07:22:53;6.10;99.90
1107;DHT22;540;49.448;8.612;2024-01-30T07:25:21;5.90;99.90
1107;DHT22;540;49.448;8.612;2024-01-30T07:27:53;5.70;99.90
1107;DHT22;540;49.448;8.612;2024-01-30T07:30:21;5.70;99.90
1107;DHT22;540;49.448;8.612;2024-01-30T07:32:51;6.10;99.90
1107;DHT22;540;49.448;8.612;2024-01-30T07:35:19;5.40;99.90
1107;DHT22;540;49.448;8.612;2024-01-30T07:37:47;6.00;99.90
1107;DHT22;540;49.448;8.612;2024-01-30T07:40:15;5.80;99.90
1107;DHT22;540;49.448;8.612;2024-01-30T07:42:43;6.00;99.90
1107;DHT22;540;49.448;8.612;2024-01-30T07:45:11;5.90;99.90
1107;DHT22;540;49.448;8.612;2024-01-30T07:47:39;5.70;99.90
1107;DHT22;540;49.448;8.612;2024-01-30T07:50:09;6.40;99.90
1107;DHT22;540;49.448;8.612;2024-01-30T07:52:37;6.20;99.90
1107;DHT22;540;49.448;8.612;2024-01-30T07:55:06;6.60;99.90
1107;DHT22;540;49.448;8.612;2024-01-30T07:57:35;6.30;99.90
1107;DHT22;540;49.448;8.612;2024-01-30T08:00:03;6.60;99.90
1107;DHT22;540;49.448;8.612;2024-01-30T08:02:32;6.50;99.90
1107;DHT22;540;49.448;8.612;2024-01-30T08:05:00;6.80;99.90
1107;DHT22;540;49.448;8.612;2024-01-30T08:07:29;6.80;99.90
1107;DHT22;540;49.448;8.612;2024-01-30T08:09:57;7.00;99.90
1107;DHT22;540;49.448;8.612;2024-01-30T08:12:25;7.10;99.90
1107;DHT22;540;49.448;8.612;2024-01-30T08:14:53;7.10;99.60
1107;DHT22;540;49.448;8.612;2024-01-30T08:17:21;7.30;99.60
1107;DHT22;540;49.448;8.612;2024-01-30T08:19:49;7.70;98.70
1107;DHT22;540;49.448;8.612;2024-01-30T08:22:16;7.70;97.90
1107;DHT22;540;49.448;8.612;2024-01-30T08:24:46;8.10;97.70
1107;DHT22;540;49.448;8.612;2024-01-30T08:27:14;8.30;96.70
1107;DHT22;540;49.448;8.612;2024-01-30T08:29:41;8.40;95.60
1107;DHT22;540;49.448;8.612;2024-01-30T08:32:09;8.60;94.80
1107;DHT22;540;49.448;8.612;2024-01-30T08:34:37;8.50;94.10
1107;DHT22;540;49.448;8.612;2024-01-30T08:37:05;8.90;93.70
1107;DHT22;540;49.448;8.612;2024-01-30T08:39:33;8.80;92.90
1107;DHT22;540;49.448;8.612;2024-01-30T08:42:02;9.00;91.90
1107;DHT22;540;49.448;8.612;2024-01-30T08:44:30;9.10;91.90
1107;DHT22;540;49.448;8.612;2024-01-30T08:46:58;9.40;91.90
1107;DHT22;540;49.448;8.612;2024-01-30T08:49:26;9.20;91.90
1107;DHT22;540;49.448;8.612;2024-01-30T08:51:54;8.90;91.90
1107;DHT22;540;49.448;8.612;2024-01-30T08:54:23;8.80;92.20
1107;DHT22;540;49.448;8.612;2024-01-30T08:56:51;8.80;92.70
1107;DHT22;540;49.448;8.612;2024-01-30T08:59:21;8.80;92.90
1107;DHT22;540;49.448;8.612;2024-01-30T09:01:49;8.90;93.10
1107;DHT22;540;49.448;8.612;2024-01-30T09:04:36;8.80;93.20
1107;DHT22;540;49.448;8.612;2024-01-30T09:07:06;8.80;93.50
1107;DHT22;540;49.448;8.612;2024-01-30T09:09:38;8.40;93.70
1107;DHT22;540;49.448;8.612;2024-01-30T09:12:08;8.50;93.50
1107;DHT22;540;49.448;8.612;2024-01-30T09:14:41;8.60;93.90
1107;DHT22;540;49.448;8.612;2024-01-30T09:17:10;8.60;94.30
1107;DHT22;540;49.448;8.612;2024-01-30T09:19:41;8.30;94.30
1107;DHT22;540;49.448;8.612;2024-01-30T09:22:10;8.50;94.70
1107;DHT22;540;49.448;8.612;2024-01-30T09:24:39;8.40;94.80
1107;DHT22;540;49.448;8.612;2024-01-30T09:27:09;8.60;94.80
1107;DHT22;540;49.448;8.612;2024-01-30T09:29:37;8.50;94.40
1107;DHT22;540;49.448;8.612;2024-01-30T09:32:08;8.50;94.30
1107;DHT22;540;49.448;8.612;2024-01-30T09:34:40;8.40;94.20
1107;DHT22;540;49.448;8.612;2024-01-30T09:37:08;8.40;93.90
1107;DHT22;540;49.448;8.612;2024-01-30T09:39:36;8.30;93.60
1107;DHT22;540;49.448;8.612;2024-01-30T09:42:09;8.30;93.80
1107;DHT22;540;49.448;8.612;2024-01-30T09:44:43;8.50;94.20
1107;DHT22;540;49.448;8.612;2024-01-30T09:47:13;8.50;93.80
1107;DHT22;540;49.448;8.612;2024-01-30T09:49:42;8.50;93.80
1107;DHT22;540;49.448;8.612;2024-01-30T09:52:11;8.60;93.80
1107;DHT22;540;49.448;8.612;2024-01-30T09:54:40;8.90;93.80
1107;DHT22;540;49.448;8.612;2024-01-30T09:57:09;9.00;93.30
1107;DHT22;540;49.448;8.612;2024-01-30T09:59:37;9.00;93.20
1107;DHT22;540;49.448;8.612;2024-01-30T10:02:05;9.10;92.80
1107;DHT22;540;49.448;8.612;2024-01-30T10:04:34;9.20;92.80
1107;DHT22;540;49.448;8.612;2024-01-30T10:07:03;9.40;91.90
1107;DHT22;540;49.448;8.612;2024-01-30T10:09:32;9.20;91.80
1107;DHT22;540;49.448;8.612;2024-01-30T10:12:02;9.40;92.10
1107;DHT22;540;49.448;8.612;2024-01-30T10:14:30;9.10;91.60
1107;DHT22;540;49.448;8.612;2024-01-30T10:16:58;9.40;92.30
1107;DHT22;540;49.448;8.612;2024-01-30T10:19:26;9.40;92.30
1107;DHT22;540;49.448;8.612;2024-01-30T10:21:56;9.30;91.70
1107;DHT22;540;49.448;8.612;2024-01-30T10:24:24;9.00;91.90
1107;DHT22;540;49.448;8.612;2024-01-30T10:26:53;9.20;92.20
1107;DHT22;540;49.448;8.612;2024-01-30T10:29:21;9.10;92.40
1107;DHT22;540;49.448;8.612;2024-01-30T10:31:58;9.30;92.30
1107;DHT22;540;49.448;8.612;2024-01-30T10:34:26;9.20;91.90
1107;DHT22;540;49.448;8.612;2024-01-30T10:37:03;9.30;91.80
1107;DHT22;540;49.448;8.612;2024-01-30T10:39:38;9.30;92.10
1107;DHT22;540;49.448;8.612;2024-01-30T10:42:07;9.30;92.20
1107;DHT22;540;49.448;8.612;2024-01-30T10:44:47;9.30;92.30
1107;DHT22;540;49.448;8.612;2024-01-30T10:47:21;9.50;91.80
1107;DHT22;540;49.448;8.612;2024-01-30T10:49:51;9.40;91.60
1107;DHT22;540;49.448;8.612;2024-01-30T10:52:23;9.60;91.60
1107;DHT22;540;49.448;8.612;2024-01-30T10:54:53;9.40;91.20
1107;DHT22;540;49.448;8.612;2024-01-30T10:57:23;9.50;91.30
1107;DHT22;540;49.448;8.612;2024-01-30T10:59:52;9.40;91.50
1107;DHT22;540;49.448;8.612;2024-01-30T11:02:21;9.50;91.60
1107;DHT22;540;49.448;8.612;2024-01-30T11:04:55;9.40;91.50
1107;DHT22;540;49.448;8.612;2024-01-30T11:07:26;9.80;91.40
1107;DHT22;540;49.448;8.612;2024-01-30T11:10:00;9.80;91.40
1107;DHT22;540;49.448;8.612;2024-01-30T11:12:30;10.00;90.40
1107;DHT22;540;49.448;8.612;2024-01-30T11:15:03;10.00;90.20
1107;DHT22;540;49.448;8.612;2024-01-30T11:17:45;9.90;90.40
1107;DHT22;540;49.448;8.612;2024-01-30T11:20:15;10.40;90.20
1107;DHT22;540;49.448;8.612;2024-01-30T11:22:47;10.20;89.80
1107;DHT22;540;49.448;8.612;2024-01-30T11:25:16;10.20;88.90
1107;DHT22;540;49.448;8.612;2024-01-30T11:27:44;10.20;89.30
1107;DHT22;540;49.448;8.612;2024-01-30T11:30:21;10.20;89.10
1107;DHT22;540;49.448;8.612;2024-01-30T11:33:00;10.50;89.30
1107;DHT22;540;49.448;8.612;2024-01-30T11:35:31;10.50;88.60
1107;DHT22;540;49.448;8.612;2024-01-30T11:38:02;10.20;88.90
1107;DHT22;540;49.448;8.612;2024-01-30T11:40:31;10.00;89.30
1107;DHT22;540;49.448;8.612;2024-01-30T11:43:01;10.10;89.20
1107;DHT22;540;49.448;8.612;2024-01-30T11:45:29;10.20;89.10
1107;DHT22;540;49.448;8.612;2024-01-30T11:47:58;10.30;89.40
1107;DHT22;540;49.448;8.612;2024-01-30T11:50:28;10.00;89.00
1107;DHT22;540;49.448;8.612;2024-01-30T11:52:56;10.20;88.70
1107;DHT22;540;49.448;8.612;2024-01-30T11:55:25;10.20;88.20
1107;DHT22;540;49.448;8.612;2024-01-30T11:57:59;10.20;89.10
1107;DHT22;540;49.448;8.612;2024-01-30T12:00:27;10.10;89.20
1107;DHT22;540;49.448;8.612;2024-01-30T12:02:57;10.30;89.30
1107;DHT22;540;49.448;8.612;2024-01-30T12:05:28;10.10;89.30
1107;DHT22;540;49.448;8.612;2024-01-30T12:07:56;10.20;89.40
1107;DHT22;540;49.448;8.612;2024-01-30T12:10:28;10.40;88.90
1107;DHT22;540;49.448;8.612;2024-01-30T12:12:57;10.20;88.80
1107;DHT22;540;49.448;8.612;2024-01-30T12:15:26;10.10;88.80
1107;DHT22;540;49.448;8.612;2024-01-30T12:18:04;10.30;89.00
1107;DHT22;540;49.448;8.612;2024-01-30T12:20:32;9.80;89.30
1107;DHT22;540;49.448;8.612;2024-01-30T12:23:00;10.40;88.20
1107;DHT22;540;49.448;8.612;2024-01-30T12:25:31;10.20;87.90
1107;DHT22;540;49.448;8.612;2024-01-30T12:27:59;10.40;87.90
1107;DHT22;540;49.448;8.612;2024-01-30T12:30:27;10.70;87.90
1107;DHT22;540;49.448;8.612;2024-01-30T12:32:56;10.60;88.00
1107;DHT22;540;49.448;8.612;2024-01-30T12:35:25;10.70;88.00
1107;DHT22;540;49.448;8.612;2024-01-30T12:37:56;10.80;88.00
1107;DHT22;540;49.448;8.612;2024-01-30T12:40:25;10.80;87.70
1107;DHT22;540;49.448;8.612;2024-01-30T12:42:54;10.70;87.30
1107;DHT22;540;49.448;8.612;2024-01-30T12:45:22;10.90;87.50
1107;DHT22;540;49.448;8.612;2024-01-30T12:47:50;11.00;87.20
1107;DHT22;540;49.448;8.612;2024-01-30T12:50:19;10.90;86.20
1107;DHT22;540;49.448;8.612;2024-01-30T12:52:46;11.10;86.00
1107;DHT22;540;49.448;8.612;2024-01-30T12:55:16;11.20;85.20
1107;DHT22;540;49.448;8.612;2024-01-30T12:57:44;11.40;84.80
1107;DHT22;540;49.448;8.612;2024-01-30T13:00:14;11.40;84.20
1107;DHT22;540;49.448;8.612;2024-01-30T13:02:43;11.30;85.30
1107;DHT22;540;49.448;8.612;2024-01-30T13:05:12;10.70;84.60
1107;DHT22;540;49.448;8.612;2024-01-30T13:07:40;11.30;84.90
1107;DHT22;540;49.448;8.612;2024-01-30T13:10:08;11.40;84.70
1107;DHT22;540;49.448;8.612;2024-01-30T13:12:36;11.30;84.60
1107;DHT22;540;49.448;8.612;2024-01-30T13:15:05;11.50;84.20
1107;DHT22;540;49.448;8.612;2024-01-30T13:17:35;11.50;83.90
1107;DHT22;540;49.448;8.612;2024-01-30T13:20:04;11.60;83.60
1107;DHT22;540;49.448;8.612;2024-01-30T13:22:38;11.70;84.20
1107;DHT22;540;49.448;8.612;2024-01-30T13:25:07;11.70;84.10
1107;DHT22;540;49.448;8.612;2024-01-30T13:27:35;11.90;84.00
1107;DHT22;540;49.448;8.612;2024-01-30T13:30:04;11.60;84.00
1107;DHT22;540;49.448;8.612;2024-01-30T13:32:32;11.70;84.50
1107;DHT22;540;49.448;8.612;2024-01-30T13:35:02;11.60;83.90
1107;DHT22;540;49.448;8.612;2024-01-30T13:37:30;11.80;84.40
1107;DHT22;540;49.448;8.612;2024-01-30T13:39:58;11.60;84.60
1107;DHT22;540;49.448;8.612;2024-01-30T13:42:29;11.60;84.40
1107;DHT22;540;49.448;8.612;2024-01-30T13:44:57;11.70;84.70
1107;DHT22;540;49.448;8.612;2024-01-30T13:47:25;11.80;85.20
1107;DHT22;540;49.448;8.612;2024-01-30T13:49:53;11.50;85.50
1107;DHT22;540;49.448;8.612;2024-01-30T13:52:22;11.50;86.00
1107;DHT22;540;49.448;8.612;2024-01-30T13:54:58;11.50;86.10
1107;DHT22;540;49.448;8.612;2024-01-30T13:57:26;11.40;86.50
1107;DHT22;540;49.448;8.612;2024-01-30T13:59:53;11.30;86.70
1107;DHT22;540;49.448;8.612;2024-01-30T14:02:21;11.40;86.80
1107;DHT22;540;49.448;8.612;2024-01-30T14:04:49;11.20;87.00
1107;DHT22;540;49.448;8.612;2024-01-30T14:07:17;11.40;87.20
1107;DHT22;540;49.448;8.612;2024-01-30T14:09:48;11.40;87.50
1107;DHT22;540;49.448;8.612;2024-01-30T14:12:16;11.30;87.40
1107;DHT22;540;49.448;8.612;2024-01-30T14:14:43;11.70;87.50
1107;DHT22;540;49.448;8.612;2024-01-30T14:17:11;11.60;87.30
1107;DHT22;540;49.448;8.612;2024-01-30T14:19:39;11.40;87.10
1107;DHT22;540;49.448;8.612;2024-01-30T14:22:07;11.50;86.50
1107;DHT22;540;49.448;8.612;2024-01-30T14:24:35;11.60;87.40
1107;DHT22;540;49.448;8.612;2024-01-30T14:27:05;11.50;87.50
1107;DHT22;540;49.448;8.612;2024-01-30T14:29:34;11.60;87.40
1107;DHT22;540;49.448;8.612;2024-01-30T14:32:02;11.60;87.80
1107;DHT22;540;49.448;8.612;2024-01-30T14:34:30;11.50;88.00
1107;DHT22;540;49.448;8.612;2024-01-30T14:36:59;11.40;87.60
1107;DHT22;540;49.448;8.612;2024-01-30T14:39:27;11.50;87.50
1107;DHT22;540;49.448;8.612;2024-01-30T14:41:56;11.40;87.80
1107;DHT22;540;49.448;8.612;2024-01-30T14:44:25;11.60;88.10
1107;DHT22;540;49.448;8.612;2024-01-30T14:46:53;11.60;88.70
1107;DHT22;540;49.448;8.612;2024-01-30T14:49:21;11.50;88.90
1107;DHT22;540;49.448;8.612;2024-01-30T14:51:49;11.50;89.00
1107;DHT22;540;49.448;8.612;2024-01-30T14:54:17;11.60;89.30
1107;DHT22;540;49.448;8.612;2024-01-30T14:56:45;11.30;89.30
1107;DHT22;540;49.448;8.612;2024-01-30T14:59:13;11.30;89.60
1107;DHT22;540;49.448;8.612;2024-01-30T15:01:42;11.40;90.00
1107;DHT22;540;49.448;8.612;2024-01-30T15:04:11;11.40;90.20
1107;DHT22;540;49.448;8.612;2024-01-30T15:06:40;11.50;90.40
1107;DHT22;540;49.448;8.612;2024-01-30T15:09:12;11.30;90.60
1107;DHT22;540;49.448;8.612;2024-01-30T15:11:41;11.30;90.60
1107;DHT22;540;49.448;8.612;2024-01-30T15:14:09;11.60;90.80
1107;DHT22;540;49.448;8.612;2024-01-30T15:16:37;11.30;90.50
1107;DHT22;540;49.448;8.612;2024-01-30T15:19:07;11.00;90.40
1107;DHT22;540;49.448;8.612;2024-01-30T15:21:35;11.30;90.70
1107;DHT22;540;49.448;8.612;2024-01-30T15:24:04;11.40;90.90
1107;DHT22;540;49.448;8.612;2024-01-30T15:26:31;11.40;91.70
1107;DHT22;540;49.448;8.612;2024-01-30T15:28:59;11.40;91.50
1107;DHT22;540;49.448;8.612;2024-01-30T15:31:27;11.30;91.50
1107;DHT22;540;49.448;8.612;2024-01-30T15:33:55;10.80;91.50
1107;DHT22;540;49.448;8.612;2024-01-30T15:36:25;10.90;92.20
1107;DHT22;540;49.448;8.612;2024-01-30T15:38:53;10.70;92.40
1107;DHT22;540;49.448;8.612;2024-01-30T15:41:20;11.20;92.30
1107;DHT22;540;49.448;8.612;2024-01-30T15:43:49;11.10;92.40
1107;DHT22;540;49.448;8.612;2024-01-30T15:46:18;11.10;92.30
1107;DHT22;540;49.448;8.612;2024-01-30T15:48:46;11.10;92.70
1107;DHT22;540;49.448;8.612;2024-01-30T15:51:15;11.10;92.30
1107;DHT22;540;49.448;8.612;2024-01-30T15:53:44;11.40;92.50
1107;DHT22;540;49.448;8.612;2024-01-30T15:56:11;11.20;92.40
1107;DHT22;540;49.448;8.612;2024-01-30T15:58:39;11.10;92.60
1107;DHT22;540;49.448;8.612;2024-01-30T16:01:07;10.90;92.60
1107;DHT22;540;49.448;8.612;2024-01-30T16:03:35;11.00;93.00
1107;DHT22;540;49.448;8.612;2024-01-30T16:06:03;10.90;92.90
1107;DHT22;540;49.448;8.612;2024-01-30T16:08:31;11.00;92.90
1107;DHT22;540;49.448;8.612;2024-01-30T16:11:00;11.10;93.40
1107;DHT22;540;49.448;8.612;2024-01-30T16:13:28;11.00;93.50
1107;DHT22;540;49.448;8.612;2024-01-30T16:15:56;11.20;94.00
1107;DHT22;540;49.448;8.612;2024-01-30T16:18:24;10.90;93.60
1107;DHT22;540;49.448;8.612;2024-01-30T16:20:53;11.10;93.80
1107;DHT22;540;49.448;8.612;2024-01-30T16:23:21;10.90;93.80
1107;DHT22;540;49.448;8.612;2024-01-30T16:25:49;10.90;93.90
1107;DHT22;540;49.448;8.612;2024-01-30T16:28:18;11.10;94.00
1107;DHT22;540;49.448;8.612;2024-01-30T16:30:46;10.80;93.70
1107;DHT22;540;49.448;8.612;2024-01-30T16:33:14;11.00;93.80
1107;DHT22;540;49.448;8.612;2024-01-30T16:35:44;10.70;93.60
1107;DHT22;540;49.448;8.612;2024-01-30T16:38:14;11.10;93.90
1107;DHT22;540;49.448;8.612;2024-01-30T16:40:41;11.10;94.00